createdAt,value
2022-12-01T00:02:24.107Z,135.48
2022-12-01T00:04:51.192Z,116.50
2022-12-01T00:07:18.136Z,133.73
2022-12-01T00:10:03.670Z,117.78
2022-12-01T00:12:31.489Z,125.80
2022-12-01T00:15:01.269Z,131.38
2022-12-01T00:17:30.012Z,127.28
2022-12-01T00:19:57.603Z,127.47
2022-12-01T00:22:24.515Z,125.88
2022-12-01T00:24:51.848Z,133.77
2022-12-01T00:27:19.088Z,148.77
2022-12-01T00:29:47.308Z,132.68
2022-12-01T00:32:14.559Z,147.13
2022-12-01T00:34:41.535Z,139.95
2022-12-01T00:37:08.585Z,150.55
2022-12-01T00:39:35.532Z,149.45
2022-12-01T00:42:02.408Z,138.77
2022-12-01T00:44:29.298Z,165.60
2022-12-01T00:46:56.561Z,156.07
2022-12-01T00:49:23.498Z,150.65
2022-12-01T00:51:50.400Z,161.18
2022-12-01T00:54:17.403Z,174.60
2022-12-01T00:56:44.528Z,168.32
2022-12-01T00:59:11.988Z,159.80
2022-12-01T01:01:39.138Z,179.93
2022-12-01T01:04:06.713Z,183.90
2022-12-01T01:06:33.702Z,178.65
2022-12-01T01:09:00.559Z,177.35
2022-12-01T01:11:27.398Z,166.95
2022-12-01T01:13:54.214Z,172.02
2022-12-01T01:16:22.178Z,173.88
2022-12-01T01:18:49.160Z,176.88
2022-12-01T01:21:17.838Z,170.43
2022-12-01T01:23:44.726Z,174.20
2022-12-01T01:26:22.520Z,165.35
2022-12-01T01:28:49.855Z,154.55
2022-12-01T01:31:18.331Z,154.07
2022-12-01T01:33:45.241Z,173.23
2022-12-01T01:36:12.822Z,148.50
2022-12-01T01:38:39.726Z,148.35
2022-12-01T01:41:07.010Z,141.68
2022-12-01T01:43:50.461Z,133.48
2022-12-01T01:46:18.793Z,151.02
2022-12-01T01:48:56.745Z,139.32
2022-12-01T01:51:36.745Z,142.93
2022-12-01T01:54:07.778Z,143.50
2022-12-01T01:56:35.830Z,140.95
2022-12-01T01:59:03.012Z,153.70
2022-12-01T02:01:30.218Z,147.18
2022-12-01T02:03:57.647Z,154.07
2022-12-01T02:06:24.818Z,150.73
2022-12-01T02:08:51.971Z,157.52
2022-12-01T02:11:27.997Z,145.48
2022-12-01T02:14:18.115Z,145.25
2022-12-01T02:16:50.872Z,156.70
2022-12-01T02:19:44.738Z,145.88
2022-12-01T02:22:14.560Z,146.85
2022-12-01T02:24:50.719Z,147.45
2022-12-01T02:27:32.455Z,146.88
2022-12-01T02:30:07.357Z,141.73
2022-12-01T02:32:34.132Z,137.55
2022-12-01T02:35:24.617Z,145.10
2022-12-01T02:40:21.205Z,141.88
2022-12-01T02:43:06.916Z,142.88
2022-12-01T02:46:00.037Z,137.38
2022-12-01T02:48:35.123Z,162.65
2022-12-01T02:51:06.632Z,145.68
2022-12-01T02:53:34.257Z,169.35
2022-12-01T02:56:01.550Z,154.98
2022-12-01T02:58:28.514Z,179.32
2022-12-01T03:00:55.530Z,177.43
2022-12-01T03:03:46.714Z,171.05
2022-12-01T03:06:24.547Z,172.60
2022-12-01T03:09:06.733Z,179.38
2022-12-01T03:11:36.495Z,182.18
2022-12-01T03:14:13.680Z,177.00
2022-12-01T03:16:54.066Z,172.93
2022-12-01T03:19:35.697Z,175.70
2022-12-01T03:22:05.987Z,168.00
2022-12-01T03:27:03.851Z,176.35
2022-12-01T03:29:33.457Z,170.38
2022-12-01T03:32:18.639Z,166.85
2022-12-01T03:34:51.660Z,159.75
2022-12-01T03:37:38.640Z,168.98
2022-12-01T03:40:08.177Z,161.30
2022-12-01T03:42:41.878Z,154.43
2022-12-01T03:45:12.160Z,167.35
2022-12-01T03:47:40.639Z,157.05
2022-12-01T03:50:08.468Z,160.13
2022-12-01T03:52:41.326Z,170.98
2022-12-01T03:55:12.103Z,165.80
2022-12-01T03:57:40.023Z,159.40
2022-12-01T04:00:08.247Z,179.13
2022-12-01T04:02:39.745Z,163.25
2022-12-01T04:05:09.447Z,156.63
2022-12-01T04:07:39.812Z,155.30
2022-12-01T04:12:33.681Z,141.05
2022-12-01T04:15:02.538Z,143.38
2022-12-01T04:17:31.408Z,273.13
2022-12-01T04:19:58.284Z,135.50
2022-12-01T04:22:25.916Z,143.75
2022-12-01T04:24:52.982Z,144.70
2022-12-01T04:27:22.103Z,163.05
2022-12-01T04:29:50.121Z,152.40
2022-12-01T04:32:18.538Z,148.27
2022-12-01T04:34:45.666Z,143.45
2022-12-01T04:37:13.186Z,157.18
2022-12-01T04:39:42.298Z,157.05
2022-12-01T04:42:09.719Z,157.48
2022-12-01T04:44:36.956Z,132.57
2022-12-01T04:47:04.764Z,132.18
2022-12-01T04:49:57.073Z,137.23
2022-12-01T04:52:23.802Z,137.80
2022-12-01T04:54:50.522Z,130.82
2022-12-01T04:57:17.228Z,125.00
2022-12-01T04:59:43.986Z,127.97
2022-12-01T05:02:10.828Z,129.45
2022-12-01T05:04:41.431Z,122.47
2022-12-01T05:07:08.249Z,120.13
2022-12-01T05:09:34.942Z,124.80
2022-12-01T05:12:01.641Z,129.18
2022-12-01T05:14:28.400Z,123.55
2022-12-01T05:16:56.098Z,123.65
2022-12-01T05:19:41.353Z,135.95
2022-12-01T05:22:08.050Z,132.43
2022-12-01T05:24:34.773Z,136.52
2022-12-01T05:27:01.478Z,136.43
2022-12-01T05:29:28.181Z,141.45
2022-12-01T05:31:54.954Z,133.82
2022-12-01T05:34:21.768Z,126.47
2022-12-01T05:36:48.479Z,134.75
2022-12-01T05:39:15.228Z,125.15
2022-12-01T05:41:41.909Z,130.20
2022-12-01T05:44:08.665Z,132.77
2022-12-01T05:46:35.352Z,137.88
2022-12-01T05:49:02.093Z,130.38
2022-12-01T05:51:28.830Z,133.90
2022-12-01T05:53:55.649Z,142.00
2022-12-01T05:56:22.464Z,141.75
2022-12-01T05:58:49.203Z,131.30
2022-12-01T06:01:16.030Z,145.40
2022-12-01T06:03:42.949Z,138.10
2022-12-01T06:06:09.746Z,143.50
2022-12-01T06:08:36.565Z,136.93
2022-12-01T06:11:03.263Z,139.32
2022-12-01T06:13:29.945Z,140.35
2022-12-01T06:16:00.353Z,132.68
2022-12-01T06:18:27.630Z,141.63
2022-12-01T06:20:54.398Z,143.10
2022-12-01T06:23:21.147Z,128.20
2022-12-01T06:25:47.842Z,137.18
2022-12-01T06:28:14.952Z,135.43
2022-12-01T06:30:41.920Z,134.52
2022-12-01T06:33:08.705Z,143.30
2022-12-01T06:35:35.729Z,139.40
2022-12-01T06:38:02.547Z,143.25
2022-12-01T06:40:29.236Z,149.40
2022-12-01T06:42:59.068Z,139.15
2022-12-01T06:45:26.353Z,142.40
2022-12-01T06:47:53.856Z,139.68
2022-12-01T06:50:20.726Z,147.48
2022-12-01T06:52:47.963Z,130.20
2022-12-01T06:55:14.773Z,137.82
2022-12-01T06:57:41.904Z,127.60
2022-12-01T07:00:09.154Z,135.02
2022-12-01T07:02:36.219Z,137.52
2022-12-01T07:05:03.006Z,131.13
2022-12-01T07:07:29.828Z,128.15
2022-12-01T07:09:56.561Z,137.82
2022-12-01T07:12:23.248Z,124.15
2022-12-01T07:14:49.932Z,139.70
2022-12-01T07:17:16.654Z,122.30
2022-12-01T07:19:43.375Z,141.68
2022-12-01T07:22:10.079Z,143.65
2022-12-01T07:24:36.789Z,134.23
2022-12-01T07:27:03.497Z,143.27
2022-12-01T07:29:30.218Z,140.05
2022-12-01T07:31:56.941Z,149.57
2022-12-01T07:34:23.717Z,135.40
2022-12-01T07:36:50.436Z,150.65
2022-12-01T07:39:17.233Z,144.95
2022-12-01T07:41:43.938Z,160.45
2022-12-01T07:44:12.360Z,159.15
2022-12-01T07:46:39.154Z,160.73
2022-12-01T07:49:07.018Z,157.75
2022-12-01T07:51:34.029Z,163.98
2022-12-01T07:54:04.942Z,154.23
2022-12-01T07:56:31.701Z,141.25
2022-12-01T07:58:58.637Z,153.88
2022-12-01T08:01:25.956Z,155.25
2022-12-01T08:03:54.038Z,156.15
2022-12-01T08:06:21.254Z,146.25
2022-12-01T08:08:48.154Z,149.07
2022-12-01T08:11:16.189Z,147.10
2022-12-01T08:13:43.263Z,149.15
2022-12-01T08:16:11.432Z,146.25
2022-12-01T08:18:39.220Z,145.63
2022-12-01T08:21:06.835Z,144.65
2022-12-01T08:23:33.683Z,144.18
2022-12-01T08:26:01.503Z,157.73
2022-12-01T08:28:28.224Z,162.57
2022-12-01T08:30:54.994Z,156.32
2022-12-01T08:33:22.223Z,162.95
2022-12-01T08:35:49.697Z,157.93
2022-12-01T08:38:17.052Z,167.73
2022-12-01T08:40:43.843Z,152.77
2022-12-01T08:43:28.318Z,149.57
2022-12-01T08:45:58.895Z,154.20
2022-12-01T08:48:25.750Z,151.23
2022-12-01T08:50:52.507Z,149.63
2022-12-01T08:53:19.217Z,151.70
2022-12-01T08:55:45.934Z,151.52
2022-12-01T08:58:12.628Z,158.18
2022-12-01T09:00:39.343Z,165.98
2022-12-01T09:03:06.089Z,145.90
2022-12-01T09:05:32.866Z,161.65
2022-12-01T09:08:18.332Z,162.40
2022-12-01T09:10:50.901Z,149.52
2022-12-01T09:13:17.603Z,169.55
2022-12-01T09:15:44.357Z,169.18
2022-12-01T09:18:11.092Z,151.20
2022-12-01T09:20:38.435Z,185.98
2022-12-01T09:23:05.136Z,166.70
2022-12-01T09:25:33.639Z,163.93
2022-12-01T09:28:00.384Z,165.20
2022-12-01T09:30:27.144Z,149.20
2022-12-01T09:32:53.933Z,171.52
2022-12-01T09:35:23.429Z,159.98
2022-12-01T09:37:50.459Z,160.07
2022-12-01T09:40:17.267Z,159.25
2022-12-01T09:42:45.377Z,167.38
2022-12-01T09:45:18.942Z,148.18
2022-12-01T09:47:46.846Z,193.77
2022-12-01T09:50:14.995Z,155.77
2022-12-01T09:52:41.798Z,160.95
2022-12-01T09:55:16.072Z,160.73
2022-12-01T09:57:43.768Z,150.10
2022-12-01T10:00:10.737Z,161.60
2022-12-01T10:03:03.185Z,167.77
2022-12-01T10:05:34.139Z,175.73
2022-12-01T10:08:02.822Z,158.75
2022-12-01T10:10:40.966Z,151.50
2022-12-01T10:13:21.417Z,150.43
2022-12-01T10:15:48.290Z,159.65
2022-12-01T10:18:18.017Z,160.45
2022-12-01T10:20:49.175Z,150.10
2022-12-01T10:23:22.565Z,163.00
2022-12-01T10:29:50.264Z,67.28
2022-12-01T10:38:30.394Z,129.57
2022-12-01T10:41:01.067Z,135.32
2022-12-01T10:43:31.897Z,137.15
2022-12-01T10:46:00.556Z,162.38
2022-12-01T10:48:27.483Z,159.25
2022-12-01T10:50:55.559Z,162.05
2022-12-01T10:53:32.707Z,161.07
2022-12-01T10:56:58.984Z,166.02
2022-12-01T10:59:28.170Z,169.63
2022-12-01T11:01:55.622Z,188.52
2022-12-01T11:04:31.816Z,167.27
2022-12-01T11:06:58.942Z,178.25
2022-12-01T11:09:28.307Z,176.15
2022-12-01T11:23:25.141Z,51.28
2022-12-01T11:26:06.164Z,47.70
2022-12-01T11:31:45.656Z,18.83
2022-12-01T11:34:24.421Z,22.15
2022-12-01T11:36:55.076Z,21.20
2022-12-01T11:39:29.516Z,21.08
2022-12-01T11:41:59.626Z,21.30
2022-12-01T11:44:50.386Z,19.10
2022-12-01T11:50:26.603Z,38.97
2022-12-01T11:52:53.270Z,37.38
2022-12-01T11:55:23.650Z,31.30
2022-12-01T11:57:53.577Z,31.17
2022-12-01T12:00:23.358Z,30.35
2022-12-01T12:03:09.479Z,27.47
2022-12-01T12:06:40.244Z,24.27
2022-12-01T12:11:57.023Z,22.63
2022-12-01T12:14:35.767Z,21.83
2022-12-01T12:17:26.435Z,22.10
2022-12-01T12:20:19.208Z,17.10
2022-12-01T12:23:06.452Z,18.65
2022-12-01T12:25:49.110Z,19.52
2022-12-01T12:28:34.319Z,18.73
2022-12-01T12:31:14.705Z,19.95
2022-12-01T12:34:02.949Z,20.83
2022-12-01T12:36:50.865Z,16.13
2022-12-01T12:39:34.323Z,15.13
2022-12-01T12:42:09.919Z,18.15
2022-12-01T12:44:37.623Z,16.52
2022-12-01T12:47:22.694Z,14.15
2022-12-01T12:50:01.175Z,18.42
2022-12-01T12:52:35.820Z,16.48
2022-12-01T12:55:11.568Z,19.30
2022-12-01T13:00:19.274Z,41.05
2022-12-01T13:04:03.177Z,35.63
2022-12-01T13:07:53.113Z,33.40
2022-12-01T13:10:47.542Z,33.00
2022-12-01T13:13:32.985Z,41.10
2022-12-01T13:16:04.073Z,28.50
2022-12-01T13:18:59.568Z,32.72
2022-12-01T13:21:38.042Z,30.38
2022-12-01T13:24:06.290Z,35.40
2022-12-01T13:26:36.487Z,29.20
2022-12-01T13:29:07.686Z,31.35
2022-12-01T13:31:48.755Z,37.65
2022-12-01T13:34:34.766Z,31.42
2022-12-01T13:37:01.905Z,31.00
2022-12-01T13:39:37.880Z,30.73
2022-12-01T13:42:04.634Z,28.88
2022-12-01T13:44:38.208Z,29.98
2022-12-01T13:47:24.992Z,29.90
2022-12-01T13:49:53.375Z,27.75
2022-12-01T13:52:23.472Z,36.47
2022-12-01T13:55:08.302Z,27.17
2022-12-01T13:57:40.612Z,33.70
2022-12-01T14:00:30.817Z,26.13
2022-12-01T14:03:12.866Z,27.48
2022-12-01T14:05:39.667Z,26.98
2022-12-01T14:08:23.757Z,27.33
2022-12-01T14:11:00.623Z,30.98
2022-12-01T14:13:30.184Z,29.48
2022-12-01T14:15:59.740Z,26.20
2022-12-01T14:18:36.183Z,27.40
2022-12-01T14:21:06.651Z,24.25
2022-12-01T14:26:18.232Z,25.92
2022-12-01T14:29:00.232Z,25.33
2022-12-01T14:31:32.985Z,23.42
2022-12-01T14:34:21.952Z,27.95
2022-12-01T14:37:03.634Z,22.02
2022-12-01T14:39:40.481Z,33.58
2022-12-01T14:42:15.847Z,25.95
2022-12-01T14:44:49.091Z,24.58
2022-12-01T14:47:16.008Z,26.35
2022-12-01T14:50:06.320Z,27.38
2022-12-01T14:52:45.276Z,23.83
2022-12-01T14:55:25.277Z,23.05
2022-12-01T14:58:00.886Z,27.67
2022-12-01T15:00:27.607Z,27.90
2022-12-01T15:02:59.378Z,30.30
2022-12-01T15:05:28.906Z,29.45
2022-12-01T15:08:18.745Z,25.83
2022-12-01T15:10:58.017Z,26.73
2022-12-01T15:13:27.848Z,23.27
2022-12-01T15:16:01.561Z,24.50
2022-12-01T15:18:29.696Z,24.40
2022-12-01T15:21:01.379Z,24.90
2022-12-01T15:23:28.348Z,29.20
2022-12-01T15:25:55.755Z,28.98
2022-12-01T15:28:33.384Z,23.58
2022-12-01T15:31:01.872Z,26.48
2022-12-01T15:33:37.274Z,39.22
2022-12-01T15:36:28.826Z,28.45
2022-12-01T15:38:56.243Z,24.80
2022-12-01T15:41:31.325Z,26.00
2022-12-01T15:43:59.923Z,25.98
2022-12-01T15:46:33.913Z,29.15
2022-12-01T15:49:29.815Z,23.42
2022-12-01T15:52:07.519Z,21.92
2022-12-01T15:54:34.592Z,32.00
2022-12-01T15:57:02.221Z,26.23
2022-12-01T15:59:39.957Z,24.17
2022-12-01T16:02:20.477Z,26.55
2022-12-01T16:04:49.435Z,22.85
2022-12-01T16:07:16.534Z,27.27
2022-12-01T16:09:57.627Z,30.27
2022-12-01T16:12:26.890Z,23.55
2022-12-01T16:15:12.310Z,24.48
2022-12-01T16:17:52.676Z,27.08
2022-12-01T16:23:26.335Z,32.80
2022-12-01T16:25:55.602Z,33.28
2022-12-01T16:28:33.230Z,31.15
2022-12-01T16:31:00.149Z,34.10
2022-12-01T16:33:28.708Z,29.83
2022-12-01T16:35:55.879Z,28.15
2022-12-01T16:38:25.102Z,35.30
2022-12-01T16:41:02.414Z,29.05
2022-12-01T16:43:29.663Z,29.63
2022-12-01T16:46:04.209Z,32.75
2022-12-01T16:48:31.775Z,35.80
2022-12-01T16:51:02.557Z,31.30
2022-12-01T16:53:29.310Z,31.77
2022-12-01T16:55:58.362Z,29.75
2022-12-01T16:58:25.705Z,30.35
2022-12-01T17:00:53.047Z,29.80
2022-12-01T17:03:25.075Z,33.20
2022-12-01T17:06:01.864Z,32.28
2022-12-01T17:08:30.318Z,35.58
2022-12-01T17:10:57.438Z,33.60
2022-12-01T17:13:24.261Z,29.80
2022-12-01T17:15:53.548Z,30.58
2022-12-01T17:18:22.125Z,30.05
2022-12-01T17:21:04.054Z,29.02
2022-12-01T17:23:30.840Z,32.05
2022-12-01T17:25:57.570Z,33.10
2022-12-01T17:28:24.377Z,38.83
2022-12-01T17:30:51.199Z,29.67
2022-12-01T17:33:18.216Z,31.55
2022-12-01T17:35:44.940Z,32.67
2022-12-01T17:38:11.621Z,31.67
2022-12-01T17:40:38.285Z,28.60
2022-12-01T17:43:08.011Z,31.33
2022-12-01T17:45:36.420Z,28.48
2022-12-01T17:48:03.395Z,30.15
2022-12-01T17:50:30.031Z,30.23
2022-12-01T17:52:56.830Z,32.33
2022-12-01T17:55:25.452Z,47.28
2022-12-01T17:57:52.567Z,39.05
2022-12-01T18:00:20.005Z,30.90
2022-12-01T18:02:46.943Z,25.10
2022-12-01T18:05:13.730Z,26.10
2022-12-01T18:07:40.757Z,28.42
2022-12-01T18:10:07.852Z,29.23
2022-12-01T18:12:35.629Z,26.65
2022-12-01T18:15:03.405Z,28.77
2022-12-01T18:17:30.186Z,28.63
2022-12-01T18:19:57.356Z,32.13
2022-12-01T18:22:23.985Z,33.92
2022-12-01T18:24:50.821Z,23.25
2022-12-01T18:27:17.790Z,38.85
2022-12-01T18:29:44.543Z,32.38
2022-12-01T18:32:11.282Z,29.40
2022-12-01T18:34:38.042Z,23.92
2022-12-01T18:37:04.831Z,24.05
2022-12-01T18:39:32.592Z,30.33
2022-12-01T18:41:59.671Z,28.55
2022-12-01T18:44:26.971Z,31.02
2022-12-01T18:46:53.806Z,28.52
2022-12-01T18:49:20.588Z,27.88
2022-12-01T18:51:47.382Z,20.77
2022-12-01T18:54:15.866Z,29.10
2022-12-01T18:56:43.074Z,35.00
2022-12-01T18:59:11.242Z,28.13
2022-12-01T19:01:41.547Z,25.77
2022-12-01T19:04:10.441Z,40.28
2022-12-01T19:06:39.247Z,35.40
2022-12-01T19:09:07.953Z,35.65
2022-12-01T19:11:35.863Z,30.23
2022-12-01T19:14:02.666Z,28.35
2022-12-01T19:16:30.116Z,23.75
2022-12-01T19:18:57.326Z,23.90
2022-12-01T19:21:24.082Z,30.00
2022-12-01T19:23:50.850Z,24.75
2022-12-01T19:26:21.064Z,24.35
2022-12-01T19:28:49.741Z,31.10
2022-12-01T19:31:22.296Z,22.02
2022-12-01T19:33:49.706Z,25.00
2022-12-01T19:36:19.374Z,21.52
2022-12-01T19:38:46.511Z,29.40
2022-12-01T19:41:14.065Z,27.90
2022-12-01T19:43:41.742Z,23.95
2022-12-01T19:46:13.691Z,23.00
2022-12-01T19:48:40.956Z,23.50
2022-12-01T19:51:15.286Z,29.27
2022-12-01T19:53:42.103Z,20.35
2022-12-01T19:56:09.619Z,25.77
2022-12-01T19:58:36.346Z,27.00
2022-12-01T20:01:08.800Z,22.50
2022-12-01T20:03:35.847Z,23.83
2022-12-01T20:06:05.428Z,22.92
2022-12-01T20:08:35.733Z,23.55
2022-12-01T20:11:03.801Z,22.08
2022-12-01T20:13:32.215Z,21.85
2022-12-01T20:16:13.970Z,21.58
2022-12-01T20:18:44.703Z,18.98
2022-12-01T20:21:17.680Z,23.02
2022-12-01T20:23:46.747Z,23.38
2022-12-01T20:26:14.792Z,21.20
2022-12-01T20:28:42.056Z,22.75
2022-12-01T20:31:31.338Z,23.83
2022-12-01T20:34:00.382Z,19.70
2022-12-01T20:36:27.611Z,20.20
2022-12-01T20:38:54.864Z,19.98
2022-12-01T20:41:21.978Z,19.65
2022-12-01T20:43:48.940Z,20.25
2022-12-01T20:46:16.838Z,19.58
2022-12-01T20:48:43.825Z,20.48
2022-12-01T20:51:13.307Z,21.48
2022-12-01T20:53:40.786Z,19.88
2022-12-01T20:56:10.852Z,20.90
2022-12-01T20:58:38.957Z,18.73
2022-12-01T21:01:17.208Z,18.85
2022-12-01T21:03:45.590Z,21.80
2022-12-01T21:06:15.048Z,19.73
2022-12-01T21:08:43.665Z,23.98
2022-12-01T21:11:36.620Z,19.83
2022-12-01T21:14:04.790Z,19.92
2022-12-01T21:16:33.078Z,17.50
2022-12-01T21:19:11.022Z,20.95
2022-12-01T21:21:41.953Z,23.95
2022-12-01T21:24:08.680Z,24.45
2022-12-01T21:26:40.405Z,18.60
2022-12-01T21:29:21.139Z,19.88
2022-12-01T21:31:50.764Z,22.17
2022-12-01T21:34:21.360Z,18.97
2022-12-01T21:36:50.095Z,17.27
2022-12-01T21:39:19.573Z,20.27
2022-12-01T21:41:47.947Z,21.92
2022-12-01T21:44:20.002Z,18.17
2022-12-01T21:46:50.183Z,19.05
2022-12-01T21:49:22.051Z,18.35
2022-12-01T21:51:52.784Z,19.95
2022-12-01T21:54:21.119Z,18.52
2022-12-01T21:56:48.963Z,18.70
2022-12-01T21:59:23.503Z,17.33
2022-12-01T22:01:57.646Z,16.17
2022-12-01T22:04:33.452Z,17.25
2022-12-01T22:07:00.180Z,20.00
2022-12-01T22:09:31.299Z,16.75
2022-12-01T22:12:11.646Z,22.30
2022-12-01T22:14:38.970Z,17.70
2022-12-01T22:17:05.662Z,16.77
2022-12-01T22:19:34.569Z,18.25
2022-12-01T22:22:23.249Z,16.08
2022-12-01T22:24:56.606Z,17.83
2022-12-01T22:27:41.798Z,23.85
2022-12-01T22:30:08.483Z,16.35
2022-12-01T22:32:58.545Z,19.33
2022-12-01T22:35:39.230Z,19.40
2022-12-01T22:38:05.992Z,16.02
2022-12-01T22:40:47.974Z,18.30
2022-12-01T22:43:17.748Z,18.10
2022-12-01T22:46:01.676Z,18.42
2022-12-01T22:48:36.246Z,21.65
2022-12-01T22:51:15.086Z,19.77
2022-12-01T22:53:43.958Z,18.20
2022-12-01T22:56:31.954Z,20.90
2022-12-01T22:58:58.722Z,15.93
2022-12-01T23:01:31.081Z,18.13
2022-12-01T23:04:22.023Z,17.33
2022-12-01T23:06:51.598Z,21.23
2022-12-01T23:09:19.095Z,17.55
2022-12-01T23:11:55.233Z,16.33
2022-12-01T23:14:23.618Z,22.33
2022-12-01T23:16:56.659Z,26.58
2022-12-01T23:19:23.439Z,17.85
2022-12-01T23:21:52.535Z,15.43
2022-12-01T23:24:19.374Z,16.10
2022-12-01T23:26:47.191Z,19.27
2022-12-01T23:29:13.928Z,16.58
2022-12-01T23:31:41.224Z,17.60
2022-12-01T23:34:15.158Z,16.65
2022-12-01T23:36:43.117Z,18.27
2022-12-01T23:39:12.746Z,19.08
2022-12-01T23:41:43.136Z,14.73
2022-12-01T23:44:38.822Z,15.45
2022-12-01T23:47:16.962Z,16.60
2022-12-01T23:49:43.945Z,17.42
2022-12-01T23:52:17.974Z,18.27
2022-12-01T23:54:44.917Z,14.27
2022-12-01T23:57:23.781Z,16.30
2022-12-01T23:59:54.486Z,16.92
